Time;durP1;ratioP1;P1;durP2;ratioP2;P2;SDS_P1;SDS_P2;PMS_P1;PMS_P2;Temp;Humidity;BMP_temperature;BMP_pressure;BME280_temperature;BME280_humidity;BME280_pressure;Samples;Min_cycle;Max_cycle;Signal;HPM_P1;HPM_P2
2022/12/27 00:02:00;;;;;;;2.10;1.50;;;;;;;;;;5051038;28;20405;-85
2022/12/27 00:04:25;;;;;;;2.17;1.20;;;;;;;;;;5054324;28;20887;-85
2022/12/27 00:06:51;;;;;;;1.50;1.40;;;;;;;;;;5054523;28;20385;-85
2022/12/27 00:09:17;;;;;;;2.97;1.33;;;;;;;;;;5054280;28;20447;-85
2022/12/27 00:11:43;;;;;;;1.73;1.00;;;;;;;;;;5053714;28;20480;-85
2022/12/27 00:14:10;;;;;;;0.80;0.70;;;;;;;;;;5054175;28;20747;-85
2022/12/27 00:16:36;;;;;;;0.70;0.70;;;;;;;;;;5054242;28;20373;-86
2022/12/27 00:19:03;;;;;;;0.52;0.52;;;;;;;;;;5054199;28;20960;-84
2022/12/27 00:21:29;;;;;;;0.60;0.40;;;;;;;;;;5054094;28;20413;-85
2022/12/27 00:23:56;;;;;;;0.55;0.40;;;;;;;;;;5054237;28;20369;-85
2022/12/27 00:26:24;;;;;;;1.20;0.50;;;;;;;;;;5054121;28;20735;-85
2022/12/27 00:28:50;;;;;;;0.50;0.30;;;;;;;;;;5054277;28;20719;-85
2022/12/27 00:31:17;;;;;;;0.52;0.35;;;;;;;;;;5053930;28;20377;-85
2022/12/27 00:33:44;;;;;;;0.45;0.38;;;;;;;;;;5054057;28;20390;-85
2022/12/27 00:36:11;;;;;;;0.98;0.50;;;;;;;;;;5053955;28;20386;-85
2022/12/27 00:38:37;;;;;;;2.13;0.40;;;;;;;;;;5053909;28;20389;-85
2022/12/27 00:41:03;;;;;;;0.40;0.40;;;;;;;;;;5053830;28;20413;-85
2022/12/27 00:43:30;;;;;;;1.30;0.50;;;;;;;;;;5053818;28;20381;-85
2022/12/27 00:45:56;;;;;;;1.00;0.40;;;;;;;;;;5053744;28;20742;-85
2022/12/27 00:48:22;;;;;;;0.95;0.40;;;;;;;;;;5053731;28;20385;-85
2022/12/27 00:50:49;;;;;;;0.82;0.50;;;;;;;;;;5053583;28;20751;-84
2022/12/27 00:53:15;;;;;;;0.55;0.40;;;;;;;;;;5053648;28;20476;-85
2022/12/27 00:55:44;;;;;;;3.07;0.50;;;;;;;;;;5053560;28;20421;-85
2022/12/27 00:58:10;;;;;;;1.40;0.60;;;;;;;;;;5053504;28;20377;-85
2022/12/27 01:00:36;;;;;;;1.17;0.70;;;;;;;;;;5053257;28;20417;-85
2022/12/27 01:03:02;;;;;;;1.33;0.50;;;;;;;;;;5046028;28;20373;-85
2022/12/27 01:05:28;;;;;;;2.53;0.60;;;;;;;;;;5053418;28;20382;-85
2022/12/27 01:07:54;;;;;;;0.57;0.40;;;;;;;;;;5053143;28;20851;-85
2022/12/27 01:10:20;;;;;;;1.15;0.68;;;;;;;;;;5053200;28;20457;-85
2022/12/27 01:12:46;;;;;;;2.22;0.50;;;;;;;;;;5053041;28;20808;-84
2022/12/27 01:15:12;;;;;;;1.75;0.50;;;;;;;;;;5049075;28;20400;-85
2022/12/27 01:17:38;;;;;;;1.43;0.60;;;;;;;;;;5053112;28;20377;-84
2022/12/27 01:20:04;;;;;;;0.82;0.60;;;;;;;;;;5052992;28;20799;-85
2022/12/27 01:22:30;;;;;;;1.33;0.60;;;;;;;;;;5052548;28;20427;-84
2022/12/27 01:24:56;;;;;;;1.13;0.63;;;;;;;;;;5051063;28;20393;-85
2022/12/27 01:27:22;;;;;;;2.17;0.68;;;;;;;;;;5052918;28;20377;-85
2022/12/27 01:29:48;;;;;;;2.20;0.80;;;;;;;;;;5039480;28;20392;-85
2022/12/27 01:32:14;;;;;;;2.92;0.73;;;;;;;;;;5034052;28;20453;-85
2022/12/27 01:34:40;;;;;;;0.82;0.63;;;;;;;;;;5051861;28;20447;-85
2022/12/27 01:37:06;;;;;;;1.48;0.70;;;;;;;;;;5034002;28;20392;-83
2022/12/27 01:39:32;;;;;;;2.60;0.85;;;;;;;;;;5051571;28;20407;-84
2022/12/27 01:44:47;;;;;;;1.63;0.80;;;;;;;;;;5051505;28;20421;-84
2022/12/27 01:47:16;;;;;;;1.35;0.82;;;;;;;;;;5051795;28;20874;-84
2022/12/27 01:49:46;;;;;;;1.45;0.73;;;;;;;;;;5051617;28;20747;-84
2022/12/27 01:52:12;;;;;;;1.20;0.73;;;;;;;;;;5048717;28;20472;-83
2022/12/27 01:54:39;;;;;;;1.92;0.60;;;;;;;;;;5047352;28;20389;-84
2022/12/27 01:57:05;;;;;;;2.20;0.90;;;;;;;;;;5032685;28;20387;-84
2022/12/27 01:59:32;;;;;;;1.53;0.93;;;;;;;;;;5033441;28;20398;-85
2022/12/27 02:01:59;;;;;;;2.20;0.65;;;;;;;;;;5032035;28;20419;-84
2022/12/27 02:04:28;;;;;;;1.90;0.70;;;;;;;;;;5049477;28;20377;-84
2022/12/27 02:06:54;;;;;;;1.58;0.60;;;;;;;;;;5052250;28;20782;-84
2022/12/27 02:09:24;;;;;;;1.83;0.70;;;;;;;;;;5051972;28;20436;-83
2022/12/27 02:11:52;;;;;;;1.48;0.70;;;;;;;;;;5052220;28;20508;-84
2022/12/27 02:14:27;;;;;;;1.17;0.73;;;;;;;;;;5034098;28;20390;-84
2022/12/27 02:16:53;;;;;;;1.13;0.50;;;;;;;;;;5052081;28;20396;-84
2022/12/27 02:19:38;;;;;;;1.80;0.70;;;;;;;;;;5051899;28;20443;-84
2022/12/27 02:22:22;;;;;;;1.75;0.80;;;;;;;;;;5051944;28;20409;-83
2022/12/27 02:25:07;;;;;;;1.47;0.70;;;;;;;;;;5051853;28;20380;-84
2022/12/27 02:27:48;;;;;;;1.37;0.70;;;;;;;;;;5051873;28;20454;-83
2022/12/27 02:30:14;;;;;;;1.08;0.80;;;;;;;;;;5051307;28;20468;-84
2022/12/27 02:32:40;;;;;;;1.40;0.60;;;;;;;;;;5043862;28;20393;-83
2022/12/27 02:35:18;;;;;;;3.30;1.00;;;;;;;;;;5051149;28;20385;-83
2022/12/27 02:37:50;;;;;;;1.45;0.80;;;;;;;;;;5051766;28;20433;-83
2022/12/27 02:54:31;;;;;;;0.98;0.70;;;;;;;;;;5049079;28;20876;-84
2022/12/27 02:57:09;;;;;;;2.00;0.80;;;;;;;;;;5051827;28;20739;-84
2022/12/27 03:08:56;;;;;;;1.02;0.68;;;;;;;;;;5039618;28;21120;-84
2022/12/27 03:17:05;;;;;;;1.10;0.80;;;;;;;;;;5051740;28;20388;-84
2022/12/27 03:25:26;;;;;;;0.98;0.70;;;;;;;;;;5038326;28;20496;-84
2022/12/27 03:33:26;;;;;;;2.97;0.80;;;;;;;;;;5051278;28;20444;-84
2022/12/27 03:38:42;;;;;;;1.40;0.70;;;;;;;;;;5051218;28;20913;-84
2022/12/27 03:43:54;;;;;;;2.40;0.63;;;;;;;;;;5051170;28;20369;-83
2022/12/27 03:46:32;;;;;;;1.63;0.63;;;;;;;;;;5044056;28;20387;-84
2022/12/27 03:48:58;;;;;;;1.10;0.77;;;;;;;;;;5050893;28;20423;-83
2022/12/27 03:51:25;;;;;;;1.85;0.80;;;;;;;;;;5054805;28;20401;-83
2022/12/27 03:53:54;;;;;;;1.60;0.73;;;;;;;;;;5054692;28;20394;-84
2022/12/27 03:56:20;;;;;;;1.13;0.70;;;;;;;;;;5054659;28;20473;-84
2022/12/27 03:58:46;;;;;;;1.70;0.77;;;;;;;;;;5054736;28;20393;-84
2022/12/27 04:01:12;;;;;;;1.55;0.85;;;;;;;;;;5044048;28;20421;-84
2022/12/27 04:03:38;;;;;;;1.40;0.90;;;;;;;;;;5054486;28;20405;-83
2022/12/27 04:06:04;;;;;;;1.80;1.17;;;;;;;;;;5054315;28;20432;-84
2022/12/27 04:35:55;;;;;;;4.82;4.38;;;;;;;;;;5054020;28;20373;-84
2022/12/27 04:38:21;;;;;;;3.33;1.27;;;;;;;;;;5053844;28;20859;-84
2022/12/27 04:54:55;;;;;;;1.88;1.05;;;;;;;;;;5053629;28;20369;-84
2022/12/27 04:57:21;;;;;;;2.00;1.00;;;;;;;;;;5053524;28;20377;-84
2022/12/27 05:02:32;;;;;;;2.17;1.10;;;;;;;;;;5049281;28;20865;-83
2022/12/27 05:04:58;;;;;;;2.50;1.00;;;;;;;;;;5053445;28;20839;-84
2022/12/27 05:15:39;;;;;;;2.05;1.05;;;;;;;;;;5053308;28;20420;-84
2022/12/27 05:18:05;;;;;;;1.55;0.85;;;;;;;;;;5053095;28;20374;-83
2022/12/27 05:20:33;;;;;;;2.80;1.10;;;;;;;;;;5052986;28;20928;-83
2022/12/27 05:25:45;;;;;;;2.13;1.20;;;;;;;;;;5048351;28;20467;-83
2022/12/27 05:28:12;;;;;;;1.80;1.20;;;;;;;;;;5052949;28;20386;-83
2022/12/27 05:30:39;;;;;;;1.92;1.20;;;;;;;;;;5049704;28;20409;-84
2022/12/27 05:33:05;;;;;;;1.42;1.00;;;;;;;;;;5043695;28;20388;-83
2022/12/27 05:35:33;;;;;;;1.85;1.15;;;;;;;;;;5046829;28;20381;-83
2022/12/27 05:37:59;;;;;;;1.38;1.10;;;;;;;;;;5047502;28;20378;-84
2022/12/27 05:40:25;;;;;;;1.42;1.02;;;;;;;;;;5052083;28;20478;-83
2022/12/27 05:42:51;;;;;;;2.10;1.20;;;;;;;;;;5052683;28;20392;-83
2022/12/27 05:45:18;;;;;;;2.72;0.90;;;;;;;;;;5051952;28;20373;-83
2022/12/27 05:47:44;;;;;;;1.33;0.85;;;;;;;;;;5052421;28;20504;-83
2022/12/27 05:50:10;;;;;;;2.85;1.00;;;;;;;;;;5052441;28;20385;-84
2022/12/27 05:52:36;;;;;;;1.25;0.90;;;;;;;;;;5040489;28;20377;-84
2022/12/27 05:55:02;;;;;;;2.17;1.00;;;;;;;;;;5052446;28;20397;-83
2022/12/27 05:57:28;;;;;;;2.17;1.10;;;;;;;;;;5052333;28;20862;-83
2022/12/27 05:59:54;;;;;;;1.07;0.90;;;;;;;;;;5050392;28;20393;-83
2022/12/27 06:02:20;;;;;;;2.15;0.98;;;;;;;;;;5048180;28;20397;-83
2022/12/27 06:04:46;;;;;;;1.60;1.00;;;;;;;;;;5052337;28;20378;-84
2022/12/27 06:07:13;;;;;;;2.50;1.03;;;;;;;;;;5052235;28;20382;-84
2022/12/27 06:09:39;;;;;;;1.70;1.38;;;;;;;;;;5051543;28;20378;-82
2022/12/27 06:12:05;;;;;;;2.55;1.10;;;;;;;;;;5052070;28;20849;-84
2022/12/27 06:14:31;;;;;;;1.00;0.90;;;;;;;;;;5052064;28;20393;-83
2022/12/27 06:16:57;;;;;;;1.40;1.00;;;;;;;;;;5052070;28;20377;-83
2022/12/27 06:19:23;;;;;;;2.05;1.02;;;;;;;;;;5051842;28;20393;-83
2022/12/27 06:21:49;;;;;;;1.50;1.10;;;;;;;;;;5050615;28;20409;-83
2022/12/27 06:24:16;;;;;;;1.93;1.20;;;;;;;;;;5051935;28;20416;-84
2022/12/27 06:26:42;;;;;;;2.00;1.10;;;;;;;;;;5051785;28;20382;-83
2022/12/27 06:29:10;;;;;;;1.92;1.00;;;;;;;;;;5051803;28;20370;-83
2022/12/27 06:31:36;;;;;;;1.50;1.10;;;;;;;;;;5051759;28;20443;-83
2022/12/27 06:34:02;;;;;;;3.08;1.25;;;;;;;;;;5051803;28;20385;-83
2022/12/27 06:36:29;;;;;;;1.48;1.00;;;;;;;;;;5051762;28;20499;-83
2022/12/27 06:38:55;;;;;;;2.55;1.30;;;;;;;;;;5051731;28;20377;-83
2022/12/27 06:41:21;;;;;;;1.33;1.23;;;;;;;;;;5051689;28;20409;-83
2022/12/27 06:43:47;;;;;;;2.05;1.33;;;;;;;;;;5051577;28;20388;-83
2022/12/27 06:46:15;;;;;;;1.63;1.15;;;;;;;;;;5051727;28;20408;-83
2022/12/27 06:48:41;;;;;;;2.40;1.50;;;;;;;;;;5051552;28;20385;-83
2022/12/27 06:51:08;;;;;;;2.80;1.60;;;;;;;;;;5037715;28;20387;-83
2022/12/27 06:53:35;;;;;;;2.30;1.75;;;;;;;;;;5031011;28;20387;-84
2022/12/27 06:56:08;;;;;;;1.77;1.63;;;;;;;;;;5032671;28;20559;-84
2022/12/27 06:58:34;;;;;;;1.88;1.60;;;;;;;;;;5031574;28;20457;-84
2022/12/27 07:01:07;;;;;;;1.70;1.60;;;;;;;;;;5046255;28;20822;-82
2022/12/27 07:03:33;;;;;;;2.05;1.63;;;;;;;;;;5050635;28;20413;-83
2022/12/27 07:06:03;;;;;;;3.43;1.40;;;;;;;;;;5050669;28;20736;-84
2022/12/27 07:08:29;;;;;;;3.25;1.30;;;;;;;;;;5050591;28;20427;-84
2022/12/27 07:11:02;;;;;;;1.40;1.00;;;;;;;;;;5038480;28;20379;-84
2022/12/27 07:13:28;;;;;;;1.93;1.10;;;;;;;;;;5047529;28;20390;-84
2022/12/27 07:15:54;;;;;;;2.38;1.40;;;;;;;;;;5050579;28;20390;-83
2022/12/27 07:18:20;;;;;;;2.50;1.00;;;;;;;;;;5050609;28;20393;-84
2022/12/27 07:20:46;;;;;;;2.33;1.30;;;;;;;;;;5048560;28;20410;-84
2022/12/27 07:23:13;;;;;;;1.95;1.45;;;;;;;;;;5051356;28;20380;-84
2022/12/27 07:25:39;;;;;;;3.00;1.38;;;;;;;;;;5046163;28;20387;-84
2022/12/27 07:28:05;;;;;;;2.25;1.20;;;;;;;;;;5040184;28;20383;-83
2022/12/27 07:30:32;;;;;;;1.63;1.40;;;;;;;;;;5038134;28;20386;-83
2022/12/27 07:32:57;;;;;;;2.00;1.13;;;;;;;;;;5054169;28;20471;-83
2022/12/27 07:35:24;;;;;;;1.70;1.27;;;;;;;;;;5054866;28;20393;-83
2022/12/27 07:37:49;;;;;;;2.33;1.55;;;;;;;;;;5055140;28;20793;-84
2022/12/27 07:40:15;;;;;;;2.65;1.50;;;;;;;;;;5054856;28;20416;-84
2022/12/27 07:42:41;;;;;;;1.52;1.42;;;;;;;;;;5055089;28;20383;-84
2022/12/27 07:45:08;;;;;;;2.07;1.50;;;;;;;;;;5054959;28;20863;-83
2022/12/27 07:47:34;;;;;;;2.80;1.50;;;;;;;;;;5055050;28;20455;-83
2022/12/27 07:50:00;;;;;;;3.22;1.50;;;;;;;;;;5051903;28;20778;-84
2022/12/27 07:52:26;;;;;;;3.33;1.90;;;;;;;;;;5055028;28;20389;-84
2022/12/27 07:54:52;;;;;;;1.92;1.40;;;;;;;;;;5054796;28;20420;-83
2022/12/27 07:57:18;;;;;;;2.15;1.92;;;;;;;;;;5054620;28;20382;-84
2022/12/27 07:59:44;;;;;;;2.25;1.55;;;;;;;;;;5043715;28;20409;-84
2022/12/27 08:02:10;;;;;;;2.90;1.40;;;;;;;;;;5054662;28;20462;-83
2022/12/27 08:04:37;;;;;;;3.15;1.73;;;;;;;;;;5054540;28;20384;-84
2022/12/27 08:07:09;;;;;;;2.20;1.60;;;;;;;;;;5054000;28;20882;-84
2022/12/27 08:09:37;;;;;;;4.13;1.90;;;;;;;;;;5053902;28;20386;-84
2022/12/27 08:12:03;;;;;;;2.47;1.52;;;;;;;;;;5053757;28;20409;-83
2022/12/27 08:14:29;;;;;;;1.90;1.52;;;;;;;;;;5044277;28;20488;-84
2022/12/27 08:17:02;;;;;;;2.37;1.50;;;;;;;;;;5041464;28;20405;-85
2022/12/27 08:19:28;;;;;;;2.50;1.60;;;;;;;;;;5016568;28;20907;-84
2022/12/27 08:21:54;;;;;;;1.73;1.30;;;;;;;;;;5035557;28;20921;-84
2022/12/27 08:24:20;;;;;;;2.00;1.58;;;;;;;;;;5034906;28;20478;-85
2022/12/27 08:26:46;;;;;;;2.03;1.75;;;;;;;;;;5049513;28;20391;-84
2022/12/27 08:29:12;;;;;;;3.13;2.00;;;;;;;;;;5034772;28;20473;-85
2022/12/27 08:31:38;;;;;;;2.88;1.75;;;;;;;;;;5033854;28;20387;-84
2022/12/27 08:34:04;;;;;;;2.78;1.70;;;;;;;;;;5041740;28;20879;-84
2022/12/27 08:36:30;;;;;;;1.90;1.52;;;;;;;;;;5036068;28;20392;-83
2022/12/27 08:38:56;;;;;;;2.50;1.70;;;;;;;;;;5053760;28;20862;-83
2022/12/27 08:41:22;;;;;;;3.03;1.50;;;;;;;;;;5053807;28;20405;-84
2022/12/27 08:43:48;;;;;;;2.40;1.60;;;;;;;;;;5053666;28;20382;-84
2022/12/27 08:46:14;;;;;;;3.15;1.70;;;;;;;;;;5053865;28;20932;-83
2022/12/27 08:48:40;;;;;;;1.98;1.77;;;;;;;;;;5053602;28;20388;-84
2022/12/27 08:51:07;;;;;;;2.50;2.20;;;;;;;;;;5053681;28;20413;-87
2022/12/27 08:53:33;;;;;;;5.38;2.85;;;;;;;;;;5044407;28;20490;-83
2022/12/27 08:55:59;;;;;;;3.20;2.20;;;;;;;;;;5051480;28;20849;-84
2022/12/27 08:58:26;;;;;;;4.65;2.10;;;;;;;;;;5053547;28;20382;-85
2022/12/27 09:00:52;;;;;;;2.78;2.42;;;;;;;;;;5049912;28;20421;-84
2022/12/27 09:03:19;;;;;;;4.32;2.10;;;;;;;;;;5053475;28;20388;-86
2022/12/27 09:05:45;;;;;;;2.80;2.22;;;;;;;;;;5053300;28;20382;-85
2022/12/27 09:08:11;;;;;;;2.13;2.00;;;;;;;;;;5053625;28;20456;-84
2022/12/27 09:10:37;;;;;;;2.53;2.13;;;;;;;;;;5044489;28;20379;-84
2022/12/27 09:13:03;;;;;;;2.28;1.60;;;;;;;;;;5051580;28;20393;-83
2022/12/27 09:15:30;;;;;;;2.63;1.80;;;;;;;;;;5053218;28;20410;-84
2022/12/27 09:17:56;;;;;;;3.20;2.40;;;;;;;;;;5053046;28;20389;-85
2022/12/27 09:20:23;;;;;;;3.50;3.20;;;;;;;;;;5045574;28;20392;-84
2022/12/27 09:22:50;;;;;;;3.67;3.17;;;;;;;;;;5035846;28;20383;-83
2022/12/27 09:25:16;;;;;;;2.97;2.20;;;;;;;;;;5049645;28;20421;-84
2022/12/27 09:27:42;;;;;;;3.78;2.78;;;;;;;;;;5045781;28;20409;-84
2022/12/27 09:30:09;;;;;;;3.25;2.60;;;;;;;;;;5052793;28;20930;-84
2022/12/27 09:32:35;;;;;;;2.58;2.15;;;;;;;;;;5044016;28;20374;-84
2022/12/27 09:35:01;;;;;;;2.40;2.15;;;;;;;;;;5050534;28;20464;-84
2022/12/27 09:37:27;;;;;;;3.53;3.03;;;;;;;;;;5050906;28;20909;-83
2022/12/27 09:39:53;;;;;;;2.75;2.47;;;;;;;;;;5050485;28;20472;-83
2022/12/27 09:42:38;;;;;;;3.63;2.60;;;;;;;;;;5051102;28;20409;-84
2022/12/27 09:45:04;;;;;;;3.03;2.72;;;;;;;;;;5052182;28;20380;-85
2022/12/27 09:47:30;;;;;;;4.85;4.35;;;;;;;;;;5052366;28;20731;-84
2022/12/27 09:50:06;;;;;;;4.95;3.10;;;;;;;;;;5051517;28;20377;-84
2022/12/27 09:52:45;;;;;;;5.05;3.88;;;;;;;;;;5040157;28;20385;-83
2022/12/27 09:55:14;;;;;;;3.53;3.10;;;;;;;;;;5052219;28;20389;-84
2022/12/27 09:57:41;;;;;;;4.60;3.40;;;;;;;;;;5050850;28;20393;-84
2022/12/27 10:00:16;;;;;;;3.72;2.53;;;;;;;;;;5044189;28;20572;-84
2022/12/27 10:02:45;;;;;;;3.20;2.38;;;;;;;;;;5046846;28;20385;-83
2022/12/27 10:05:18;;;;;;;5.43;2.42;;;;;;;;;;5051752;28;20365;-84
2022/12/27 10:07:47;;;;;;;2.47;1.60;;;;;;;;;;5050080;28;20382;-83
2022/12/27 10:10:13;;;;;;;3.90;2.13;;;;;;;;;;5047871;28;20389;-83
2022/12/27 10:12:48;;;;;;;4.40;2.20;;;;;;;;;;5032241;28;20480;-84
2022/12/27 10:15:17;;;;;;;4.72;1.92;;;;;;;;;;5048722;28;20873;-84
2022/12/27 10:17:49;;;;;;;5.40;1.70;;;;;;;;;;5051368;28;20735;-83
2022/12/27 10:20:34;;;;;;;6.60;2.30;;;;;;;;;;5048831;28;20377;-83
2022/12/27 10:23:02;;;;;;;3.17;1.73;;;;;;;;;;5051717;28;20388;-83
2022/12/27 10:25:28;;;;;;;2.33;1.35;;;;;;;;;;5052054;28;20428;-83
2022/12/27 10:27:58;;;;;;;4.63;1.60;;;;;;;;;;5051876;28;20392;-83
2022/12/27 10:30:25;;;;;;;3.22;1.35;;;;;;;;;;5050300;28;20476;-83
2022/12/27 10:32:52;;;;;;;4.30;1.52;;;;;;;;;;5044715;28;20395;-83
2022/12/27 10:35:19;;;;;;;3.38;1.35;;;;;;;;;;5051435;28;20421;-86
2022/12/27 10:37:45;;;;;;;4.43;2.70;;;;;;;;;;5027301;28;20880;-85
2022/12/27 10:40:15;;;;;;;3.58;1.40;;;;;;;;;;5035189;28;20380;-85
2022/12/27 10:42:50;;;;;;;2.47;1.33;;;;;;;;;;5049650;28;20400;-83
2022/12/27 10:45:28;;;;;;;2.85;1.35;;;;;;;;;;5050019;28;20396;-84
2022/12/27 10:48:13;;;;;;;2.35;1.42;;;;;;;;;;5051235;28;20483;-85
2022/12/27 10:50:42;;;;;;;5.13;1.90;;;;;;;;;;5036328;28;20770;-85
2022/12/27 10:53:25;;;;;;;3.55;1.60;;;;;;;;;;5031600;28;20394;-84
2022/12/27 10:55:51;;;;;;;3.60;1.80;;;;;;;;;;5046677;28;20386;-83
2022/12/27 10:58:31;;;;;;;2.97;1.40;;;;;;;;;;5051406;28;20912;-84
2022/12/27 11:00:57;;;;;;;3.65;1.40;;;;;;;;;;5050356;28;20432;-84
2022/12/27 11:03:25;;;;;;;4.45;1.65;;;;;;;;;;5050625;28;20386;-84
2022/12/27 11:06:01;;;;;;;5.03;1.95;;;;;;;;;;5050798;28;20841;-85
2022/12/27 11:08:27;;;;;;;4.68;1.85;;;;;;;;;;5050658;28;20961;-84
2022/12/27 11:11:11;;;;;;;3.30;1.90;;;;;;;;;;5050681;28;20431;-84
2022/12/27 11:13:38;;;;;;;4.38;1.80;;;;;;;;;;5047056;28;20387;-86
2022/12/27 11:16:04;;;;;;;4.10;1.80;;;;;;;;;;5042839;28;20389;-85
2022/12/27 11:18:31;;;;;;;3.92;1.25;;;;;;;;;;5050288;28;20377;-84
2022/12/27 11:20:59;;;;;;;3.28;1.25;;;;;;;;;;5051079;28;20413;-85
2022/12/27 11:23:33;;;;;;;4.18;1.25;;;;;;;;;;5051265;28;20409;-84
2022/12/27 11:26:05;;;;;;;5.03;1.40;;;;;;;;;;5051249;28;20431;-85
2022/12/27 11:28:34;;;;;;;4.65;1.75;;;;;;;;;;5050227;28;20381;-85
2022/12/27 11:31:10;;;;;;;3.40;1.50;;;;;;;;;;5050362;28;20456;-85
2022/12/27 11:33:47;;;;;;;2.95;1.20;;;;;;;;;;5051196;28;20378;-84
2022/12/27 11:36:14;;;;;;;3.80;1.10;;;;;;;;;;5054696;28;20408;-85
2022/12/27 11:38:42;;;;;;;3.33;1.10;;;;;;;;;;5057507;28;20385;-85
2022/12/27 11:41:27;;;;;;;2.33;1.20;;;;;;;;;;5055547;28;20401;-85
2022/12/27 11:44:01;;;;;;;2.25;1.00;;;;;;;;;;5051157;28;20855;-85
2022/12/27 11:46:28;;;;;;;1.27;0.90;;;;;;;;;;5051091;28;20409;-85
2022/12/27 11:48:57;;;;;;;2.88;1.35;;;;;;;;;;5051224;28;20766;-85
2022/12/27 11:51:41;;;;;;;5.50;2.15;;;;;;;;;;5051115;28;20413;-86
2022/12/27 11:54:18;;;;;;;3.55;1.75;;;;;;;;;;5048163;28;20886;-85
2022/12/27 11:56:47;;;;;;;3.50;1.50;;;;;;;;;;5033178;28;21000;-85
2022/12/27 11:59:33;;;;;;;2.47;1.20;;;;;;;;;;5050764;28;20425;-85
2022/12/27 12:02:14;;;;;;;4.13;1.30;;;;;;;;;;5050990;28;20444;-85
2022/12/27 12:04:43;;;;;;;2.53;1.10;;;;;;;;;;5050926;28;20428;-85
2022/12/27 12:07:15;;;;;;;2.25;1.13;;;;;;;;;;5041022;28;20411;-86
2022/12/27 12:09:48;;;;;;;3.25;1.13;;;;;;;;;;5034188;28;20408;-85
2022/12/27 12:12:47;;;;;;;3.33;1.20;;;;;;;;;;5054739;28;20774;-86
2022/12/27 12:15:18;;;;;;;3.05;1.20;;;;;;;;;;4999942;28;20443;-84
2022/12/27 12:17:53;;;;;;;5.32;1.30;;;;;;;;;;5054294;28;20396;-84
2022/12/27 12:20:37;;;;;;;2.10;1.23;;;;;;;;;;5054160;28;20388;-85
2022/12/27 12:23:09;;;;;;;3.58;1.30;;;;;;;;;;5054202;28;20377;-84
2022/12/27 12:25:43;;;;;;;2.55;1.17;;;;;;;;;;5054228;28;20435;-84
2022/12/27 12:28:21;;;;;;;3.08;1.17;;;;;;;;;;5054124;28;20430;-85
2022/12/27 12:30:54;;;;;;;2.63;1.23;;;;;;;;;;5054088;28;20720;-84
2022/12/27 12:33:26;;;;;;;2.72;1.33;;;;;;;;;;5054124;28;20381;-83
2022/12/27 12:36:10;;;;;;;3.83;1.65;;;;;;;;;;5053982;28;20396;-85
2022/12/27 12:38:42;;;;;;;2.28;1.10;;;;;;;;;;5053889;28;20854;-85
2022/12/27 12:41:16;;;;;;;2.30;1.30;;;;;;;;;;5053929;28;20928;-84
2022/12/27 12:44:14;;;;;;;3.80;1.20;;;;;;;;;;5053803;28;20373;-84
2022/12/27 12:46:43;;;;;;;3.92;1.38;;;;;;;;;;5051316;28;20715;-85
2022/12/27 12:49:12;;;;;;;2.78;1.20;;;;;;;;;;5051242;28;20408;-84
2022/12/27 12:51:53;;;;;;;2.30;1.08;;;;;;;;;;5053670;28;20472;-85
2022/12/27 12:54:38;;;;;;;2.63;1.10;;;;;;;;;;5053630;28;20382;-85
2022/12/27 12:57:09;;;;;;;3.80;1.38;;;;;;;;;;5053626;28;20420;-84
2022/12/27 12:59:54;;;;;;;2.33;1.00;;;;;;;;;;5053555;28;20393;-85
2022/12/27 13:02:20;;;;;;;3.42;1.10;;;;;;;;;;5053730;28;20755;-85
2022/12/27 13:05:04;;;;;;;2.08;0.90;;;;;;;;;;5052791;28;20377;-84
2022/12/27 13:07:39;;;;;;;3.50;1.20;;;;;;;;;;5039559;28;20432;-86
2022/12/27 13:10:20;;;;;;;1.92;1.13;;;;;;;;;;5049940;28;20366;-85
2022/12/27 13:13:12;;;;;;;3.13;1.40;;;;;;;;;;5053162;28;20735;-85
2022/12/27 13:15:48;;;;;;;1.70;1.30;;;;;;;;;;5048638;28;20771;-86
2022/12/27 13:18:21;;;;;;;2.30;1.33;;;;;;;;;;5053372;28;20731;-85
2022/12/27 13:20:55;;;;;;;2.70;1.30;;;;;;;;;;5052573;28;20433;-86
2022/12/27 13:23:27;;;;;;;3.00;1.23;;;;;;;;;;5047004;28;20774;-86
2022/12/27 13:25:59;;;;;;;3.63;1.38;;;;;;;;;;5052931;28;20378;-86
2022/12/27 13:28:33;;;;;;;2.78;1.23;;;;;;;;;;5052639;28;20467;-85
2022/12/27 13:31:05;;;;;;;2.00;1.60;;;;;;;;;;5050570;28;20851;-86
2022/12/27 13:33:43;;;;;;;2.30;1.30;;;;;;;;;;5052870;28;20377;-85
2022/12/27 13:36:20;;;;;;;4.40;1.58;;;;;;;;;;5052805;28;20378;-85
2022/12/27 13:39:09;;;;;;;3.87;1.40;;;;;;;;;;5052449;28;20879;-86
2022/12/27 13:41:54;;;;;;;2.08;1.13;;;;;;;;;;4991300;28;20420;-86
2022/12/27 13:44:26;;;;;;;2.58;0.95;;;;;;;;;;5047422;28;20442;-86
2022/12/27 13:47:04;;;;;;;2.65;1.08;;;;;;;;;;5052646;28;20381;-86
2022/12/27 13:50:03;;;;;;;3.42;1.30;;;;;;;;;;5052422;28;20535;-87
2022/12/27 13:52:59;;;;;;;2.22;1.10;;;;;;;;;;4998239;28;20459;-85
2022/12/27 13:55:36;;;;;;;2.17;1.15;;;;;;;;;;4964804;28;20897;-86
2022/12/27 13:58:02;;;;;;;3.03;1.23;;;;;;;;;;5052515;28;20540;-88
2022/12/27 14:00:36;;;;;;;2.25;1.02;;;;;;;;;;5049288;28;20417;-88
2022/12/27 14:03:08;;;;;;;2.38;1.10;;;;;;;;;;5052364;28;20397;-87
2022/12/27 14:05:40;;;;;;;2.75;1.10;;;;;;;;;;5052058;28;20390;-86
2022/12/27 14:08:18;;;;;;;2.25;1.20;;;;;;;;;;5050692;28;20735;-85
2022/12/27 14:10:51;;;;;;;2.33;1.25;;;;;;;;;;5052087;28;20431;-86
2022/12/27 14:13:31;;;;;;;1.85;1.20;;;;;;;;;;5052121;28;20381;-86
2022/12/27 14:16:00;;;;;;;2.10;1.30;;;;;;;;;;5051861;28;20385;-85
2022/12/27 14:18:35;;;;;;;2.08;1.20;;;;;;;;;;5052227;28;20739;-87
2022/12/27 14:21:10;;;;;;;1.60;1.10;;;;;;;;;;5051944;28;20413;-85
2022/12/27 14:23:54;;;;;;;2.50;1.38;;;;;;;;;;5051607;28;20394;-85
2022/12/27 14:26:53;;;;;;;3.70;1.45;;;;;;;;;;5050883;28;20461;-86
2022/12/27 14:29:37;;;;;;;2.83;1.60;;;;;;;;;;4993473;28;20388;-86
2022/12/27 14:32:22;;;;;;;2.38;1.27;;;;;;;;;;5050442;28;20459;-85
2022/12/27 14:35:06;;;;;;;2.72;1.30;;;;;;;;;;5051451;28;20377;-88
2022/12/27 14:37:41;;;;;;;2.88;1.45;;;;;;;;;;5051865;28;20424;-87
2022/12/27 14:40:07;;;;;;;2.95;1.40;;;;;;;;;;5051101;28;20430;-85
2022/12/27 14:42:52;;;;;;;2.17;1.38;;;;;;;;;;5051331;28;20716;-84
2022/12/27 14:45:20;;;;;;;3.22;1.50;;;;;;;;;;5051630;28;20378;-83
2022/12/27 14:48:03;;;;;;;1.88;1.20;;;;;;;;;;5051440;28;20877;-84
2022/12/27 14:50:29;;;;;;;2.58;1.50;;;;;;;;;;5045973;28;20396;-87
2022/12/27 14:53:05;;;;;;;3.15;1.95;;;;;;;;;;5042533;28;20473;-86
2022/12/27 14:55:31;;;;;;;4.30;2.00;;;;;;;;;;5045204;28;20373;-85
2022/12/27 14:58:14;;;;;;;3.20;2.00;;;;;;;;;;5039430;28;20430;-85
2022/12/27 15:00:58;;;;;;;4.45;2.50;;;;;;;;;;5051199;28;20463;-85
2022/12/27 15:03:39;;;;;;;4.50;2.40;;;;;;;;;;5042726;28;20867;-86
2022/12/27 15:06:23;;;;;;;2.83;1.90;;;;;;;;;;5031585;28;20452;-86
2022/12/27 15:09:02;;;;;;;4.45;2.40;;;;;;;;;;5033407;28;20367;-86
2022/12/27 15:11:34;;;;;;;4.50;2.10;;;;;;;;;;5018013;28;20409;-85
2022/12/27 15:14:06;;;;;;;3.58;1.60;;;;;;;;;;5023483;28;20382;-85
2022/12/27 15:16:51;;;;;;;7.10;4.07;;;;;;;;;;5032600;28;20378;-86
2022/12/27 15:19:35;;;;;;;13.80;8.55;;;;;;;;;;5051240;28;20384;-86
2022/12/27 15:22:23;;;;;;;8.10;7.30;;;;;;;;;;5051097;28;20417;-85
2022/12/27 15:24:52;;;;;;;4.82;4.30;;;;;;;;;;5021609;28;20468;-85
2022/12/27 15:27:30;;;;;;;3.05;1.73;;;;;;;;;;5031281;28;20424;-86
2022/12/27 15:30:02;;;;;;;2.17;1.17;;;;;;;;;;5038864;28;20373;-85
2022/12/27 15:32:43;;;;;;;2.72;1.33;;;;;;;;;;5025547;28;20394;-85
2022/12/27 15:35:28;;;;;;;2.17;1.20;;;;;;;;;;5033283;28;20459;-84
2022/12/27 15:38:09;;;;;;;1.15;0.90;;;;;;;;;;5051268;28;20382;-85
2022/12/27 15:40:35;;;;;;;1.60;1.00;;;;;;;;;;5051087;28;20381;-85
2022/12/27 15:43:24;;;;;;;3.30;1.53;;;;;;;;;;5052713;28;20381;-86
2022/12/27 15:46:12;;;;;;;3.10;1.90;;;;;;;;;;5034839;28;20420;-86
2022/12/27 15:48:45;;;;;;;2.28;1.63;;;;;;;;;;5040998;28;20389;-85
2022/12/27 15:51:20;;;;;;;4.82;2.17;;;;;;;;;;5022695;28;20410;-86
2022/12/27 15:53:53;;;;;;;2.90;1.90;;;;;;;;;;5036687;28;20879;-85
2022/12/27 15:56:37;;;;;;;2.67;1.45;;;;;;;;;;5038181;28;20376;-86
2022/12/27 15:59:22;;;;;;;2.70;1.53;;;;;;;;;;5046796;28;20419;-84
2022/12/27 16:02:08;;;;;;;2.85;1.80;;;;;;;;;;5041879;28;20466;-85
2022/12/27 16:04:41;;;;;;;3.25;1.80;;;;;;;;;;5051622;28;20790;-85
2022/12/27 16:07:27;;;;;;;2.53;1.60;;;;;;;;;;5054653;28;20386;-85
2022/12/27 16:09:53;;;;;;;2.35;1.67;;;;;;;;;;5054415;28;20408;-84
2022/12/27 16:12:38;;;;;;;2.47;1.60;;;;;;;;;;5054437;28;20392;-85
2022/12/27 16:15:23;;;;;;;1.80;1.50;;;;;;;;;;5054427;28;20373;-85
2022/12/27 16:17:54;;;;;;;1.85;1.50;;;;;;;;;;5054289;28;20388;-85
2022/12/27 16:20:22;;;;;;;2.77;1.23;;;;;;;;;;5049081;28;20391;-85
2022/12/27 16:22:57;;;;;;;2.65;1.30;;;;;;;;;;5035975;28;20383;-84
2022/12/27 16:25:29;;;;;;;4.15;3.03;;;;;;;;;;5045427;28;20797;-84
2022/12/27 16:28:06;;;;;;;3.83;2.65;;;;;;;;;;5036103;28;20446;-86
2022/12/27 16:30:38;;;;;;;4.07;3.17;;;;;;;;;;5044940;28;20387;-85
2022/12/27 16:33:04;;;;;;;3.85;3.42;;;;;;;;;;5034221;28;20452;-85
2022/12/27 16:35:31;;;;;;;2.83;2.42;;;;;;;;;;5024639;28;20926;-85
2022/12/27 16:38:02;;;;;;;3.15;1.92;;;;;;;;;;5051070;28;20384;-86
2022/12/27 16:40:41;;;;;;;2.80;1.88;;;;;;;;;;5037813;28;20403;-86
2022/12/27 16:43:07;;;;;;;3.92;1.45;;;;;;;;;;5035808;28;20383;-85
2022/12/27 16:45:39;;;;;;;2.70;1.23;;;;;;;;;;5040322;28;20891;-86
2022/12/27 16:48:17;;;;;;;3.22;1.40;;;;;;;;;;5035289;28;20380;-85
2022/12/27 16:50:53;;;;;;;3.73;1.57;;;;;;;;;;5017992;28;20438;-85